Time;durP1;ratioP1;P1;durP2;ratioP2;P2;SDS_P1;SDS_P2;PMS_P1;PMS_P2;Temp;Humidity;BMP_temperature;BMP_pressure;BME280_temperature;BME280_humidity;BME280_pressure;Samples;Min_cycle;Max_cycle;Signal;HPM_P1;HPM_P2
2022/05/14 00:01:05;;;;;;;8.43;5.30;;;12.80;99.90;;;;;;5063571;28;19908;-45
2022/05/14 00:03:32;;;;;;;9.98;5.45;;;12.90;99.90;;;;;;5068291;28;20028;-45
2022/05/14 00:06:01;;;;;;;6.88;5.00;;;12.80;99.90;;;;;;5068709;28;20477;-45
2022/05/14 00:08:28;;;;;;;10.25;4.72;;;12.80;99.90;;;;;;5063238;28;20033;-48
2022/05/14 00:13:38;;;;;;;9.82;4.38;;;12.80;99.90;;;;;;5055896;28;20064;-45
2022/05/14 00:16:04;;;;;;;8.10;4.55;;;12.80;99.90;;;;;;5080006;28;20027;-49
2022/05/14 00:18:30;;;;;;;8.55;4.50;;;12.70;99.90;;;;;;5088410;28;20108;-46
2022/05/14 00:20:55;;;;;;;14.25;5.40;;;12.70;99.90;;;;;;5087053;28;20082;-47
2022/05/14 00:23:21;;;;;;;12.25;4.53;;;12.70;99.90;;;;;;5079187;28;20035;-46
2022/05/14 00:25:47;;;;;;;11.25;4.53;;;12.70;99.90;;;;;;5068062;28;20033;-47
2022/05/14 00:28:13;;;;;;;12.13;4.85;;;12.70;99.90;;;;;;5050195;28;20029;-46
2022/05/14 00:30:40;;;;;;;12.95;4.53;;;12.70;99.90;;;;;;5048294;28;20025;-46
2022/05/14 00:33:05;;;;;;;8.57;4.40;;;12.70;99.90;;;;;;5047672;28;20064;-46
2022/05/14 00:35:32;;;;;;;6.55;3.92;;;12.70;99.90;;;;;;5048545;28;20061;-45
2022/05/14 00:37:58;;;;;;;8.88;4.10;;;12.70;99.90;;;;;;5046809;28;20494;-45
2022/05/14 00:40:32;;;;;;;6.30;3.47;;;12.70;99.90;;;;;;5065486;28;20032;-46
2022/05/14 00:42:59;;;;;;;7.63;4.20;;;12.60;99.90;;;;;;5058574;28;20029;-46
2022/05/14 00:45:25;;;;;;;8.40;3.65;;;12.60;99.90;;;;;;5067899;28;20040;-46
2022/05/14 00:47:53;;;;;;;8.77;3.72;;;12.60;99.90;;;;;;5067742;28;20430;-46
2022/05/14 00:50:26;;;;;;;7.55;3.85;;;12.60;99.90;;;;;;5067532;28;20052;-46
2022/05/14 00:53:18;;;;;;;6.55;3.35;;;12.60;99.90;;;;;;5069383;28;20263;-46
2022/05/14 00:55:46;;;;;;;7.72;3.60;;;12.60;99.90;;;;;;5071631;28;20077;-46
2022/05/14 00:58:19;;;;;;;9.60;4.28;;;12.70;99.90;;;;;;5056877;28;20036;-46
2022/05/14 01:00:45;;;;;;;8.88;4.00;;;12.70;99.90;;;;;;5051827;28;20552;-45
2022/05/14 01:03:10;;;;;;;9.00;4.18;;;12.70;99.90;;;;;;5051522;28;20037;-46
2022/05/14 01:05:36;;;;;;;7.55;4.10;;;12.70;99.90;;;;;;5051940;28;20063;-43
2022/05/14 01:08:03;;;;;;;8.13;4.03;;;12.80;99.90;;;;;;5058529;28;20032;-45
2022/05/14 01:10:36;;;;;;;9.32;3.70;;;12.80;99.90;;;;;;5053159;28;20043;-45
2022/05/14 01:13:03;;;;;;;7.40;4.05;;;12.80;99.90;;;;;;5051231;28;20025;-46
2022/05/14 01:15:49;;;;;;;8.60;3.63;;;12.90;99.90;;;;;;5080252;28;20078;-45
2022/05/14 01:18:17;;;;;;;15.20;4.47;;;12.90;99.90;;;;;;5079682;28;20063;-45
2022/05/14 01:20:47;;;;;;;8.82;3.75;;;12.90;99.90;;;;;;5051236;28;20098;-46
2022/05/14 01:23:24;;;;;;;8.20;3.78;;;12.90;99.90;;;;;;5050586;28;20061;-45
2022/05/14 01:26:29;;;;;;;9.43;3.58;;;12.90;99.90;;;;;;5051155;28;20028;-46
2022/05/14 01:29:15;;;;;;;9.68;3.95;;;12.90;99.90;;;;;;5051327;28;20100;-45
2022/05/14 01:31:41;;;;;;;9.13;4.20;;;12.90;99.90;;;;;;5050894;28;20560;-45
2022/05/14 01:34:11;;;;;;;9.43;4.10;;;13.00;99.90;;;;;;5051075;28;20471;-45
2022/05/14 01:36:38;;;;;;;8.50;4.63;;;12.90;99.90;;;;;;5051266;28;20033;-45
2022/05/14 01:39:05;;;;;;;8.70;3.80;;;13.00;99.90;;;;;;5050862;28;20029;-45
2022/05/14 01:41:30;;;;;;;7.35;3.45;;;13.00;99.90;;;;;;5061208;28;20071;-45
2022/05/14 01:43:56;;;;;;;13.38;3.80;;;13.00;99.90;;;;;;5063524;28;20456;-46
2022/05/14 01:46:21;;;;;;;6.72;3.60;;;13.00;99.90;;;;;;5072440;28;20029;-45
2022/05/14 01:48:48;;;;;;;6.57;3.85;;;13.00;99.90;;;;;;5070861;28;20094;-47
2022/05/14 01:51:14;;;;;;;7.03;3.58;;;13.00;99.90;;;;;;5069964;28;20478;-45
2022/05/14 01:53:40;;;;;;;7.70;4.30;;;13.00;99.90;;;;;;5069978;28;20090;-45
2022/05/14 01:56:06;;;;;;;6.43;3.78;;;13.00;99.90;;;;;;5070423;28;20424;-46
2022/05/14 01:58:38;;;;;;;10.20;4.18;;;13.00;99.90;;;;;;5057891;28;20036;-45
2022/05/14 02:01:25;;;;;;;9.23;4.10;;;13.00;99.90;;;;;;5069028;28;20028;-45
2022/05/14 02:03:54;;;;;;;14.98;4.25;;;13.00;99.90;;;;;;5069354;28;20062;-46
2022/05/14 02:06:20;;;;;;;10.02;4.28;;;12.90;99.90;;;;;;5055153;28;20040;-45
2022/05/14 02:08:46;;;;;;;8.43;4.15;;;12.90;99.90;;;;;;5050263;28;20112;-46
2022/05/14 02:11:13;;;;;;;6.82;3.22;;;12.90;99.90;;;;;;5049589;28;20688;-46
2022/05/14 02:13:40;;;;;;;10.32;4.35;;;13.00;99.90;;;;;;5070379;28;20444;-46
2022/05/14 02:16:06;;;;;;;10.15;4.55;;;13.00;99.90;;;;;;5070358;28;20279;-45
2022/05/14 02:18:32;;;;;;;7.53;3.63;;;13.00;99.90;;;;;;5070228;28;20030;-45
2022/05/14 02:20:57;;;;;;;12.52;4.18;;;13.00;99.90;;;;;;5069527;28;20031;-44
2022/05/14 02:23:23;;;;;;;9.25;4.80;;;13.00;99.90;;;;;;5068980;28;20037;-44
2022/05/14 02:25:48;;;;;;;12.73;4.95;;;12.90;99.90;;;;;;5070236;28;20087;-45
2022/05/14 02:28:15;;;;;;;9.50;4.57;;;12.90;99.90;;;;;;5070124;28;20259;-45
2022/05/14 02:30:40;;;;;;;8.93;4.00;;;12.80;99.90;;;;;;5066865;28;20024;-44
2022/05/14 02:33:06;;;;;;;12.50;5.63;;;12.80;99.90;;;;;;5049367;28;20029;-44
2022/05/14 02:35:32;;;;;;;9.55;6.80;;;12.70;99.90;;;;;;5049788;28;20021;-43
2022/05/14 02:37:58;;;;;;;13.45;6.57;;;12.60;99.90;;;;;;5049739;28;20032;-44
2022/05/14 02:40:23;;;;;;;13.18;6.57;;;12.50;99.90;;;;;;5049925;28;20027;-43
2022/05/14 02:42:49;;;;;;;15.32;6.65;;;12.40;99.90;;;;;;5069694;28;20051;-45
2022/05/14 02:45:15;;;;;;;11.88;7.00;;;12.50;99.90;;;;;;5072475;28;20087;-45
2022/05/14 02:47:41;;;;;;;11.68;7.22;;;12.40;99.90;;;;;;5069779;28;20133;-44
2022/05/14 02:50:08;;;;;;;12.18;7.43;;;12.40;99.90;;;;;;5069178;28;20490;-44
2022/05/14 02:52:34;;;;;;;13.68;8.00;;;12.50;99.90;;;;;;5067642;28;20039;-44
2022/05/14 02:55:00;;;;;;;12.80;7.70;;;12.40;99.90;;;;;;5069286;28;20029;-44
2022/05/14 02:57:25;;;;;;;16.05;7.60;;;12.40;99.90;;;;;;5069081;28;20031;-44
2022/05/14 02:59:51;;;;;;;13.27;7.30;;;12.40;99.90;;;;;;5067368;28;20028;-44
2022/05/14 03:02:17;;;;;;;12.93;8.43;;;12.50;99.90;;;;;;5048915;28;20490;-44
2022/05/14 03:04:44;;;;;;;14.68;7.80;;;12.40;99.90;;;;;;5049290;28;20049;-44
2022/05/14 03:07:11;;;;;;;13.60;8.77;;;12.40;99.90;;;;;;5049681;28;20028;-44
2022/05/14 03:09:38;;;;;;;17.50;9.13;;;12.40;99.90;;;;;;5060679;28;20541;-45
2022/05/14 03:12:05;;;;;;;11.48;8.68;;;12.40;99.90;;;;;;5061316;28;20552;-44
2022/05/14 03:14:31;;;;;;;15.80;8.00;;;12.40;99.90;;;;;;5077046;28;20048;-44
2022/05/14 03:16:57;;;;;;;11.75;7.95;;;12.40;99.90;;;;;;5076474;28;20391;-44
2022/05/14 03:19:22;;;;;;;11.20;7.97;;;12.40;99.90;;;;;;5055305;28;20037;-44
2022/05/14 03:21:48;;;;;;;18.45;8.20;;;12.40;99.90;;;;;;5047265;28;20552;-44
2022/05/14 03:24:14;;;;;;;13.45;8.32;;;12.40;99.90;;;;;;5049389;28;20517;-43
2022/05/14 03:26:41;;;;;;;15.85;8.77;;;12.40;99.90;;;;;;5048912;28;20498;-44
2022/05/14 03:29:08;;;;;;;12.77;8.40;;;12.40;99.90;;;;;;5055741;28;20033;-44
2022/05/14 03:31:34;;;;;;;14.50;9.38;;;12.30;99.90;;;;;;5067038;28;20144;-44
2022/05/14 03:34:00;;;;;;;13.23;8.95;;;12.40;99.90;;;;;;5049869;28;20029;-44
2022/05/14 03:36:26;;;;;;;13.27;10.00;;;12.30;99.90;;;;;;5054704;28;20613;-46
2022/05/14 03:38:53;;;;;;;17.20;10.05;;;12.30;99.90;;;;;;5057378;28;20025;-44
2022/05/14 03:41:20;;;;;;;16.10;9.00;;;12.30;99.90;;;;;;5059507;28;20032;-46
2022/05/14 03:43:47;;;;;;;18.38;10.63;;;12.20;99.90;;;;;;5057202;28;20024;-45
2022/05/14 03:46:12;;;;;;;18.02;10.60;;;12.20;99.90;;;;;;5062567;28;20024;-45
2022/05/14 03:48:38;;;;;;;17.30;10.55;;;12.20;99.90;;;;;;5066410;28;20025;-46
2022/05/14 03:51:04;;;;;;;15.63;10.35;;;12.20;99.90;;;;;;5057154;28;20032;-45
2022/05/14 03:53:30;;;;;;;19.13;10.75;;;12.20;99.90;;;;;;5056756;28;20482;-46
2022/05/14 03:55:56;;;;;;;15.05;10.13;;;12.20;99.90;;;;;;5057009;28;20493;-45
2022/05/14 03:58:22;;;;;;;11.32;8.40;;;12.10;99.90;;;;;;5057274;28;20029;-45
2022/05/14 04:00:48;;;;;;;17.52;10.70;;;12.20;99.90;;;;;;5060077;28;20024;-47
2022/05/14 04:03:14;;;;;;;18.90;10.77;;;12.10;99.90;;;;;;5056317;28;20051;-46
2022/05/14 04:05:39;;;;;;;16.58;10.80;;;12.10;99.90;;;;;;5059095;28;20129;-46
2022/05/14 04:08:05;;;;;;;15.82;10.30;;;12.10;99.90;;;;;;5056328;28;20021;-45
2022/05/14 04:10:32;;;;;;;18.13;10.27;;;12.00;99.90;;;;;;5056228;28;20098;-47
2022/05/14 04:12:58;;;;;;;14.40;11.30;;;12.00;99.90;;;;;;5057183;28;20683;-46
2022/05/14 04:15:25;;;;;;;17.80;10.07;;;12.00;99.90;;;;;;5059110;28;20379;-46
2022/05/14 04:17:51;;;;;;;17.25;10.45;;;12.00;99.90;;;;;;5060255;28;20040;-47
2022/05/14 04:20:17;;;;;;;22.33;11.27;;;12.10;99.90;;;;;;5057013;28;20025;-45
2022/05/14 04:22:43;;;;;;;16.63;10.82;;;12.10;99.90;;;;;;5055629;28;20090;-45
2022/05/14 04:25:11;;;;;;;13.48;9.55;;;12.00;99.90;;;;;;5058366;28;20045;-45
2022/05/14 04:27:40;;;;;;;17.10;11.05;;;12.10;99.90;;;;;;5061012;28;20414;-46
2022/05/14 04:30:06;;;;;;;20.70;11.10;;;12.10;99.90;;;;;;5060764;28;20086;-45
2022/05/14 04:32:32;;;;;;;20.58;11.70;;;12.10;99.90;;;;;;5060958;28;20025;-46
2022/05/14 04:34:57;;;;;;;18.27;11.25;;;12.10;99.90;;;;;;5060578;28;20041;-43
2022/05/14 04:37:23;;;;;;;15.90;10.27;;;12.20;99.90;;;;;;5059708;28;20028;-44
2022/05/14 04:39:49;;;;;;;18.73;10.75;;;12.20;99.90;;;;;;5063386;28;20025;-44
2022/05/14 04:42:15;;;;;;;25.35;11.95;;;12.30;99.90;;;;;;5060643;28;20024;-44
2022/05/14 04:44:42;;;;;;;13.13;10.07;;;12.30;99.90;;;;;;5062390;28;20032;-44
2022/05/14 04:47:08;;;;;;;12.70;10.52;;;12.30;99.90;;;;;;5064100;28;20021;-44
2022/05/14 04:49:38;;;;;;;19.15;10.55;;;12.40;99.90;;;;;;5066109;28;20283;-45
2022/05/14 04:52:04;;;;;;;17.40;10.73;;;12.50;99.90;;;;;;5063430;28;20445;-45
2022/05/14 04:54:30;;;;;;;16.40;10.68;;;12.50;99.90;;;;;;5069130;28;20021;-45
2022/05/14 04:56:55;;;;;;;15.65;9.85;;;12.60;99.90;;;;;;5061096;28;20017;-45
2022/05/14 04:59:21;;;;;;;19.73;10.27;;;12.60;99.90;;;;;;5062882;28;20052;-45
2022/05/14 05:04:32;;;;;;;14.68;10.07;;;12.80;99.90;;;;;;5060101;28;20075;-44
2022/05/14 05:06:57;;;;;;;15.15;9.57;;;12.80;99.90;;;;;;5060806;28;20020;-44
2022/05/14 05:09:23;;;;;;;19.42;9.85;;;12.80;99.90;;;;;;5062058;28;20052;-45
2022/05/14 05:11:50;;;;;;;16.23;10.05;;;12.90;99.90;;;;;;5059792;28;20072;-46
2022/05/14 05:14:16;;;;;;;15.35;9.80;;;13.00;99.90;;;;;;5061356;28;20020;-44
2022/05/14 05:16:41;;;;;;;19.33;10.32;;;13.00;99.90;;;;;;5051538;28;20032;-45
2022/05/14 05:19:07;;;;;;;18.75;9.95;;;13.00;99.90;;;;;;5051658;28;20021;-45
2022/05/14 05:21:33;;;;;;;14.25;9.10;;;13.10;99.90;;;;;;5058617;28;20194;-45
2022/05/14 05:23:59;;;;;;;16.65;8.90;;;13.10;99.90;;;;;;5083011;28;20388;-46
2022/05/14 05:26:24;;;;;;;17.13;9.10;;;13.10;99.90;;;;;;5091416;28;20020;-45
2022/05/14 05:28:50;;;;;;;15.57;8.35;;;13.20;99.90;;;;;;5091231;28;20032;-45
2022/05/14 05:31:17;;;;;;;19.75;8.57;;;13.20;99.90;;;;;;5072117;28;20024;-45
2022/05/14 05:33:43;;;;;;;14.02;7.35;;;13.30;99.90;;;;;;5050811;28;20013;-47
2022/05/14 05:36:08;;;;;;;16.67;8.48;;;13.30;99.90;;;;;;5050958;28;20370;-45
2022/05/14 05:38:34;;;;;;;17.70;7.72;;;13.40;99.90;;;;;;5053050;28;20029;-47
2022/05/14 05:40:59;;;;;;;16.33;7.95;;;13.40;99.90;;;;;;5069912;28;20021;-47
2022/05/14 05:43:26;;;;;;;11.48;7.63;;;13.40;99.90;;;;;;5058195;28;20076;-44
2022/05/14 05:45:52;;;;;;;20.98;8.38;;;13.50;99.90;;;;;;5051025;28;20090;-45
2022/05/14 05:48:18;;;;;;;17.98;9.30;;;13.60;99.90;;;;;;5061929;28;20039;-46
2022/05/14 05:50:48;;;;;;;17.00;7.28;;;13.60;99.90;;;;;;5065418;28;20032;-45
2022/05/14 05:53:14;;;;;;;12.90;6.85;;;13.60;99.90;;;;;;5065129;28;20110;-45
2022/05/14 05:58:24;;;;;;;14.63;7.57;;;13.70;99.90;;;;;;5087700;28;20034;-46
2022/05/14 06:00:49;;;;;;;12.13;7.00;;;13.80;99.90;;;;;;5072647;28;20036;-49
2022/05/14 06:03:15;;;;;;;14.20;7.05;;;13.80;99.90;;;;;;5070620;28;20025;-45
2022/05/14 06:05:41;;;;;;;18.02;7.70;;;13.90;99.90;;;;;;5073074;28;20037;-45
2022/05/14 06:08:16;;;;;;;14.35;7.10;;;14.00;99.90;;;;;;5063667;28;20031;-48
2022/05/14 06:10:44;;;;;;;17.48;7.35;;;14.00;99.90;;;;;;5062137;28;20120;-45
2022/05/14 06:13:10;;;;;;;13.38;7.97;;;14.00;99.90;;;;;;5063621;28;20047;-48
2022/05/14 06:15:36;;;;;;;13.27;7.20;;;14.10;99.90;;;;;;5070298;28;20021;-45
2022/05/14 06:18:03;;;;;;;16.02;7.28;;;14.10;99.90;;;;;;5062677;28;20421;-45
2022/05/14 06:20:29;;;;;;;15.30;7.93;;;14.20;99.90;;;;;;5063116;28;20025;-47
2022/05/14 06:22:55;;;;;;;13.40;8.07;;;14.20;99.90;;;;;;5064313;28;20500;-47
2022/05/14 06:25:20;;;;;;;12.82;7.40;;;14.30;99.90;;;;;;5064473;28;20107;-45
2022/05/14 06:27:46;;;;;;;18.17;7.38;;;14.40;99.90;;;;;;5060927;28;20494;-45
2022/05/14 06:30:12;;;;;;;11.85;6.55;;;14.60;99.90;;;;;;5060444;28;20111;-47
2022/05/14 06:32:38;;;;;;;15.93;6.35;;;14.70;99.90;;;;;;5066789;28;20016;-46
2022/05/14 06:35:06;;;;;;;13.63;6.30;;;14.80;99.90;;;;;;5075897;28;20493;-45
2022/05/14 06:37:31;;;;;;;13.27;6.68;;;15.00;99.90;;;;;;5062777;28;20059;-45
2022/05/14 06:39:57;;;;;;;16.73;6.45;;;15.10;99.90;;;;;;5062753;28;20056;-46
2022/05/14 06:42:22;;;;;;;12.68;6.38;;;15.20;99.90;;;;;;5058985;28;20083;-46
2022/05/14 06:44:48;;;;;;;12.57;6.07;;;15.30;99.90;;;;;;5064885;28;20041;-45
2022/05/14 06:47:14;;;;;;;26.75;7.13;;;15.30;99.90;;;;;;5063056;28;20035;-45
2022/05/14 06:49:39;;;;;;;14.00;5.22;;;15.30;99.90;;;;;;5058732;28;20025;-46
2022/05/14 06:52:07;;;;;;;18.80;6.68;;;15.40;99.90;;;;;;5068863;28;20544;-47
2022/05/14 06:54:37;;;;;;;13.48;6.30;;;15.40;99.90;;;;;;5068156;28;20522;-48
2022/05/14 06:57:03;;;;;;;15.98;6.47;;;15.50;99.90;;;;;;5049608;28;20021;-45
2022/05/14 06:59:29;;;;;;;19.77;6.72;;;15.50;99.90;;;;;;5076231;28;20031;-46
2022/05/14 07:01:55;;;;;;;17.13;6.90;;;15.40;99.90;;;;;;5048741;28;20104;-45
2022/05/14 07:07:05;;;;;;;15.38;6.15;;;15.70;99.90;;;;;;5088383;28;20116;-46
2022/05/14 07:09:32;;;;;;;18.63;6.95;;;15.80;99.90;;;;;;5073638;28;20031;-45
2022/05/14 07:12:04;;;;;;;23.27;5.50;;;15.80;99.90;;;;;;5068387;28;20035;-45
2022/05/14 07:14:31;;;;;;;9.68;5.82;;;16.00;99.90;;;;;;5052398;28;20025;-47
2022/05/14 07:16:57;;;;;;;21.63;7.22;;;16.00;99.90;;;;;;5049010;28;20040;-45
2022/05/14 07:19:24;;;;;;;13.60;5.93;;;16.00;99.90;;;;;;5073300;28;20028;-46
2022/05/14 07:21:52;;;;;;;16.90;6.53;;;16.20;99.90;;;;;;5088640;28;20020;-46
2022/05/14 07:24:21;;;;;;;12.48;5.78;;;16.50;99.90;;;;;;5064322;28;20121;-44
2022/05/14 07:26:49;;;;;;;21.35;6.75;;;16.60;99.50;;;;;;5063395;28;20024;-45
2022/05/14 07:29:16;;;;;;;13.90;5.95;;;16.60;99.60;;;;;;5068651;28;20048;-44
2022/05/14 07:31:42;;;;;;;11.93;5.85;;;16.80;99.40;;;;;;5064058;28;20116;-45
2022/05/14 07:34:08;;;;;;;12.88;6.00;;;17.10;98.60;;;;;;5073185;28;20536;-44
2022/05/14 07:36:40;;;;;;;18.10;5.93;;;17.30;98.40;;;;;;5069129;28;20398;-44
2022/05/14 07:39:05;;;;;;;16.60;6.32;;;17.50;97.90;;;;;;5068062;28;20031;-44
2022/05/14 07:41:32;;;;;;;13.65;5.32;;;17.80;98.00;;;;;;5068024;28;20190;-44
2022/05/14 07:44:00;;;;;;;12.23;5.55;;;17.80;97.20;;;;;;5068320;28;20021;-44
2022/05/14 07:46:31;;;;;;;19.02;6.05;;;17.80;97.10;;;;;;5068168;28;20028;-44
2022/05/14 07:48:59;;;;;;;13.43;5.85;;;17.70;96.90;;;;;;5073697;28;20124;-45
2022/05/14 07:51:25;;;;;;;10.43;4.75;;;17.80;97.30;;;;;;5088548;28;20132;-45
2022/05/14 07:53:52;;;;;;;16.70;5.15;;;18.00;97.40;;;;;;5088420;28;20028;-45
2022/05/14 07:56:18;;;;;;;15.65;5.75;;;18.10;97.10;;;;;;5088821;28;20017;-44
2022/05/14 07:58:44;;;;;;;16.60;5.30;;;18.10;96.40;;;;;;5088922;28;20116;-44
2022/05/14 08:01:10;;;;;;;19.45;5.50;;;18.40;95.70;;;;;;5090034;28;20024;-45
2022/05/14 08:03:36;;;;;;;17.35;6.35;;;18.50;95.80;;;;;;5071977;28;20123;-48
2022/05/14 08:06:02;;;;;;;21.63;5.82;;;18.40;95.60;;;;;;5088184;28;20107;-44
2022/05/14 08:08:28;;;;;;;14.73;4.20;;;18.60;95.60;;;;;;5092970;28;20131;-45
2022/05/14 08:10:55;;;;;;;14.02;5.47;;;18.90;94.60;;;;;;5069489;28;20021;-45
2022/05/14 08:13:22;;;;;;;20.42;4.97;;;18.90;95.40;;;;;;5062162;28;20031;-45
2022/05/14 08:15:49;;;;;;;14.88;5.57;;;19.30;94.90;;;;;;5063842;28;20707;-46
2022/05/14 08:18:15;;;;;;;22.80;10.85;;;19.50;93.70;;;;;;5061498;28;20021;-45
2022/05/14 08:20:42;;;;;;;12.88;4.35;;;19.90;93.80;;;;;;5062491;28;20071;-47
2022/05/14 08:26:00;;;;;;;15.38;4.22;;;20.40;91.40;;;;;;5062456;28;20027;-47
2022/05/14 08:28:27;;;;;;;15.05;4.78;;;21.40;90.70;;;;;;5059455;28;20028;-45
2022/05/14 08:30:53;;;;;;;11.57;4.45;;;22.00;87.10;;;;;;5062001;28;20042;-46
2022/05/14 08:33:19;;;;;;;11.15;4.03;;;23.10;84.10;;;;;;5066054;28;20048;-48
2022/05/14 08:35:46;;;;;;;12.65;4.75;;;24.50;76.70;;;;;;5062909;28;20020;-45
2022/05/14 08:38:14;;;;;;;17.15;4.43;;;25.30;73.80;;;;;;5057578;28;20021;-46
2022/05/14 08:40:54;;;;;;;11.90;3.75;;;26.10;69.60;;;;;;5061804;28;20036;-46
2022/05/14 08:43:43;;;;;;;12.27;4.00;;;25.80;67.00;;;;;;5056797;28;20071;-45
2022/05/14 08:46:15;;;;;;;11.43;4.13;;;25.90;64.60;;;;;;5063821;28;20052;-46
2022/05/14 08:48:41;;;;;;;12.77;3.95;;;26.40;64.70;;;;;;5061983;28;20032;-48
2022/05/14 08:51:16;;;;;;;12.93;4.18;;;26.80;62.30;;;;;;5061705;28;20051;-46
2022/05/14 08:53:43;;;;;;;12.45;3.97;;;26.80;60.60;;;;;;5061829;28;20025;-44
2022/05/14 08:56:21;;;;;;;15.48;5.18;;;27.30;60.90;;;;;;5063630;28;20013;-46
2022/05/14 08:59:26;;;;;;;14.18;4.07;;;26.70;60.10;;;;;;5061241;28;20047;-45
2022/05/14 09:01:58;;;;;;;13.88;4.45;;;26.20;59.80;;;;;;5063938;28;20355;-46
2022/05/14 09:04:24;;;;;;;22.73;6.63;;;25.70;60.40;;;;;;5072566;28;20013;-46
2022/05/14 09:06:50;;;;;;;10.73;5.03;;;24.50;63.60;;;;;;5061389;28;20023;-46
2022/05/14 09:09:17;;;;;;;17.50;6.82;;;23.60;66.00;;;;;;5062755;28;20051;-45
2022/05/14 09:11:56;;;;;;;22.67;5.55;;;23.70;66.40;;;;;;5061925;28;20109;-44
2022/05/14 09:14:36;;;;;;;11.65;4.40;;;24.40;65.80;;;;;;5062259;28;20025;-44
2022/05/14 09:17:11;;;;;;;16.30;5.30;;;24.20;65.20;;;;;;5062601;28;20486;-46
2022/05/14 09:19:43;;;;;;;17.38;6.00;;;25.00;64.30;;;;;;5062199;28;20025;-46
2022/05/14 09:22:22;;;;;;;13.05;4.57;;;24.50;64.80;;;;;;5061605;28;20162;-45
2022/05/14 09:24:54;;;;;;;14.60;5.15;;;24.80;64.40;;;;;;5060645;28;20405;-46
2022/05/14 09:27:54;;;;;;;16.83;5.60;;;24.80;63.20;;;;;;5061949;28;20024;-43
2022/05/14 09:30:35;;;;;;;12.02;4.85;;;24.50;65.60;;;;;;5063261;28;20549;-46
2022/05/14 09:33:01;;;;;;;15.68;4.40;;;24.30;64.50;;;;;;5064424;28;20021;-45
2022/05/14 09:35:32;;;;;;;15.68;4.30;;;23.90;64.70;;;;;;5066206;28;20591;-45
2022/05/14 09:38:12;;;;;;;16.00;5.30;;;24.10;65.50;;;;;;5061921;28;20100;-45
2022/05/14 09:40:39;;;;;;;16.13;5.22;;;24.30;64.20;;;;;;5061120;28;20639;-44
2022/05/14 09:43:23;;;;;;;17.17;4.68;;;23.80;65.00;;;;;;5061856;28;20123;-46
2022/05/14 09:46:12;;;;;;;13.95;5.80;;;23.80;63.60;;;;;;5061834;28;20116;-45
2022/05/14 09:48:51;;;;;;;14.88;5.00;;;24.10;64.30;;;;;;5061385;28;20036;-45
2022/05/14 09:51:46;;;;;;;14.50;4.90;;;25.30;61.90;;;;;;5061315;28;20017;-45
2022/05/14 09:54:30;;;;;;;13.00;4.43;;;25.90;61.70;;;;;;5059501;28;20012;-46
2022/05/14 09:57:04;;;;;;;17.20;4.50;;;25.70;60.20;;;;;;5061034;28;20031;-45
2022/05/14 09:59:51;;;;;;;12.27;4.28;;;25.10;60.60;;;;;;5058149;28;20062;-45
2022/05/14 10:02:47;;;;;;;14.38;3.67;;;24.20;61.10;;;;;;5061310;28;20028;-46
2022/05/14 10:05:19;;;;;;;22.40;5.47;;;23.40;63.60;;;;;;5066686;28;20102;-45
2022/05/14 10:07:53;;;;;;;15.63;4.35;;;23.50;65.70;;;;;;5065697;28;20085;-45
2022/05/14 10:10:40;;;;;;;17.70;5.35;;;23.30;64.70;;;;;;5062195;28;20067;-46
2022/05/14 10:13:27;;;;;;;17.90;4.30;;;24.30;64.90;;;;;;5060108;28;20021;-45
2022/05/14 10:16:21;;;;;;;15.68;5.25;;;24.80;61.90;;;;;;5060602;28;20176;-46
2022/05/14 10:19:10;;;;;;;12.32;3.75;;;24.70;61.30;;;;;;5062225;28;20024;-45
2022/05/14 10:21:43;;;;;;;14.25;4.82;;;26.20;60.50;;;;;;5060942;28;20021;-46
2022/05/14 10:27:29;;;;;;;12.10;3.65;;;26.30;56.90;;;;;;5063536;28;20505;-45
2022/05/14 10:30:32;;;;;;;14.70;4.80;;;24.90;59.60;;;;;;5061352;28;20378;-46
2022/05/14 10:33:04;;;;;;;18.17;4.80;;;24.50;61.00;;;;;;5063552;28;20099;-45
2022/05/14 10:35:48;;;;;;;19.25;4.38;;;23.70;60.60;;;;;;5061447;28;20047;-45
2022/05/14 10:38:37;;;;;;;17.30;4.53;;;23.80;60.40;;;;;;5066073;28;20450;-45
2022/05/14 10:41:06;;;;;;;11.55;3.75;;;24.70;62.70;;;;;;5062891;28;20120;-45
2022/05/14 10:43:48;;;;;;;16.80;4.63;;;25.70;58.40;;;;;;5057074;28;20025;-46
2022/05/14 10:46:18;;;;;;;13.10;4.22;;;25.70;58.00;;;;;;5062344;28;20008;-44
2022/05/14 10:49:05;;;;;;;9.82;3.75;;;25.10;58.60;;;;;;5061988;28;20031;-44
2022/05/14 10:51:36;;;;;;;12.77;4.30;;;24.70;59.20;;;;;;5060681;28;20020;-44
2022/05/14 10:54:02;;;;;;;;;;;24.60;59.50;;;;;;5060390;28;20071;-45
2022/05/14 10:56:37;;;;;;;14.27;3.70;;;24.30;61.50;;;;;;5062861;28;20007;-44
2022/05/14 10:59:05;;;;;;;17.70;4.30;;;23.90;60.50;;;;;;5068291;28;20142;-47
2022/05/14 11:01:58;;;;;;;13.10;4.43;;;23.40;59.20;;;;;;5070902;28;20016;-46
2022/05/14 11:04:31;;;;;;;17.50;4.88;;;23.10;61.70;;;;;;5086623;28;20020;-47
2022/05/14 11:07:25;;;;;;;11.98;3.53;;;24.60;61.10;;;;;;5071020;28;20064;-44
2022/05/14 11:09:52;;;;;;;11.65;3.90;;;25.60;58.50;;;;;;5070190;28;20044;-44
2022/05/14 11:12:21;;;;;;;13.70;3.85;;;26.70;54.00;;;;;;5069793;28;20020;-46
2022/05/14 11:14:53;;;;;;;13.75;4.40;;;27.10;53.70;;;;;;5070912;28;20016;-46
2022/05/14 11:17:29;;;;;;;11.70;3.75;;;27.60;53.30;;;;;;5070648;28;20028;-45
2022/05/14 11:20:07;;;;;;;12.32;3.72;;;27.20;52.60;;;;;;5060672;28;20033;-46
2022/05/14 11:22:46;;;;;;;16.25;4.05;;;26.30;54.00;;;;;;5058230;28;20033;-45
2022/05/14 11:25:17;;;;;;;20.13;4.47;;;25.50;55.80;;;;;;5069201;28;20492;-46
2022/05/14 11:27:58;;;;;;;12.88;4.80;;;25.20;56.90;;;;;;5070772;28;20028;-46
2022/05/14 11:30:37;;;;;;;15.20;4.43;;;24.70;57.40;;;;;;5062985;28;20025;-45
2022/05/14 11:33:17;;;;;;;13.00;4.50;;;25.20;56.70;;;;;;5057212;28;20029;-45
2022/05/14 11:35:44;;;;;;;19.73;4.68;;;24.50;56.80;;;;;;5055357;28;20089;-46
2022/05/14 11:38:35;;;;;;;12.68;4.28;;;24.00;59.60;;;;;;5058402;28;20643;-45
2022/05/14 11:41:13;;;;;;;15.30;4.47;;;24.10;59.10;;;;;;5060183;28;20128;-48
2022/05/14 11:43:46;;;;;;;12.77;4.47;;;23.60;60.30;;;;;;5058218;28;20052;-46
2022/05/14 11:46:39;;;;;;;12.77;4.03;;;24.40;59.80;;;;;;5060225;28;20026;-47
2022/05/14 11:49:29;;;;;;;15.85;4.78;;;24.90;58.00;;;;;;5067190;28;20044;-45
2022/05/14 11:52:07;;;;;;;16.33;4.35;;;25.30;58.50;;;;;;5070103;28;20028;-45
2022/05/14 11:55:02;;;;;;;20.23;4.28;;;25.40;56.70;;;;;;5082356;28;20153;-46
2022/05/14 11:57:43;;;;;;;18.83;4.72;;;24.80;55.50;;;;;;5083143;28;20712;-45
2022/05/14 12:00:19;;;;;;;13.85;4.63;;;25.00;58.00;;;;;;5058885;28;20028;-45
2022/05/14 12:02:57;;;;;;;12.73;4.10;;;25.20;56.40;;;;;;5059720;28;20116;-45
2022/05/14 12:05:28;;;;;;;15.75;4.68;;;24.80;56.40;;;;;;5060151;28;20017;-44
2022/05/14 12:08:14;;;;;;;13.18;4.35;;;24.20;58.10;;;;;;5061067;28;20632;-44
2022/05/14 12:11:02;;;;;;;20.13;5.20;;;24.30;57.20;;;;;;5058044;28;20065;-43
2022/05/14 12:13:41;;;;;;;18.33;4.38;;;24.50;58.30;;;;;;5059164;28;20021;-44
2022/05/14 12:16:09;;;;;;;19.88;4.45;;;24.90;59.20;;;;;;5060043;28;20024;-45
2022/05/14 12:18:39;;;;;;;16.30;4.00;;;25.30;58.40;;;;;;5060719;28;20031;-45
2022/05/14 12:21:06;;;;;;;17.73;5.05;;;25.30;56.60;;;;;;5057096;28;20102;-44
2022/05/14 12:23:46;;;;;;;11.25;4.65;;;25.50;56.60;;;;;;5056373;28;20021;-44
2022/05/14 12:26:23;;;;;;;;;;;24.90;56.80;;;;;;5059749;28;20021;-46
2022/05/14 12:28:51;;;;;;;14.90;4.35;;;24.30;56.40;;;;;;5059947;28;19959;-44
2022/05/14 12:34:13;;;;;;;15.85;4.18;;;23.70;58.10;;;;;;5057968;28;20082;-46
2022/05/14 12:36:51;;;;;;;14.02;4.18;;;23.60;57.50;;;;;;5058553;28;20032;-44
2022/05/14 12:39:20;;;;;;;15.32;4.20;;;23.20;57.30;;;;;;5052927;28;20032;-45
2022/05/14 12:41:51;;;;;;;20.08;5.53;;;23.00;58.50;;;;;;5049633;28;20060;-45
2022/05/14 12:44:26;;;;;;;14.68;4.57;;;23.30;57.00;;;;;;5049981;28;20100;-44
2022/05/14 12:46:54;;;;;;;12.07;5.10;;;23.60;58.20;;;;;;5073261;28;20025;-46
2022/05/14 12:49:26;;;;;;;13.13;3.70;;;23.70;56.60;;;;;;5066004;28;20036;-44
2022/05/14 12:51:55;;;;;;;13.70;3.58;;;23.10;55.70;;;;;;5053105;28;20037;-44
2022/05/14 12:54:31;;;;;;;13.15;4.63;;;22.80;56.60;;;;;;5078087;28;20622;-47
2022/05/14 12:57:01;;;;;;;18.30;4.85;;;22.80;57.80;;;;;;5088565;28;20031;-47
2022/05/14 12:59:27;;;;;;;;;;;22.50;56.80;;;;;;5094298;28;20027;-46
2022/05/14 13:01:59;;;;;;;15.70;4.72;;;22.50;58.90;;;;;;5093243;28;20007;-46
2022/05/14 13:04:33;;;;;;;20.73;5.45;;;22.50;59.60;;;;;;5073955;28;20044;-44
2022/05/14 13:07:00;;;;;;;12.98;4.00;;;23.00;58.80;;;;;;5073140;28;20032;-45
2022/05/14 13:09:28;;;;;;;18.27;5.35;;;23.00;58.10;;;;;;5059585;28;20931;-45
2022/05/14 13:11:54;;;;;;;13.30;4.38;;;22.90;58.10;;;;;;5052962;28;20041;-45
2022/05/14 13:14:33;;;;;;;13.60;4.45;;;22.70;58.70;;;;;;5058559;28;20414;-44